sensor_id;sensor_type;location;lat;lon;timestamp;P1;durP1;ratioP1;P2;durP2;ratioP2
19664;SDS011;9980;51.020;7.772;2023-03-01T00:01:38;10.73;;;9.77;;
19664;SDS011;9980;51.020;7.772;2023-03-01T00:04:06;12.00;;;10.63;;
19664;SDS011;9980;51.020;7.772;2023-03-01T00:06:33;12.17;;;10.03;;
19664;SDS011;9980;51.020;7.772;2023-03-01T00:09:00;11.23;;;10.13;;
19664;SDS011;9980;51.020;7.772;2023-03-01T00:11:28;16.23;;;10.37;;
19664;SDS011;9980;51.020;7.772;2023-03-01T00:13:58;11.00;;;10.10;;
19664;SDS011;9980;51.020;7.772;2023-03-01T00:16:32;14.17;;;10.70;;
19664;SDS011;9980;51.020;7.772;2023-03-01T00:19:02;11.80;;;10.60;;
19664;SDS011;9980;51.020;7.772;2023-03-01T00:21:29;11.30;;;10.20;;
19664;SDS011;9980;51.020;7.772;2023-03-01T00:23:56;12.17;;;10.97;;
19664;SDS011;9980;51.020;7.772;2023-03-01T00:26:24;11.37;;;10.27;;
19664;SDS011;9980;51.020;7.772;2023-03-01T00:28:52;10.37;;;9.37;;
19664;SDS011;9980;51.020;7.772;2023-03-01T00:31:23;11.13;;;10.13;;
19664;SDS011;9980;51.020;7.772;2023-03-01T00:33:54;11.83;;;10.63;;
19664;SDS011;9980;51.020;7.772;2023-03-01T00:36:25;10.90;;;9.97;;
19664;SDS011;9980;51.020;7.772;2023-03-01T00:38:57;11.83;;;10.73;;
19664;SDS011;9980;51.020;7.772;2023-03-01T00:41:25;12.63;;;10.17;;
19664;SDS011;9980;51.020;7.772;2023-03-01T00:43:55;11.80;;;10.73;;
19664;SDS011;9980;51.020;7.772;2023-03-01T00:46:24;11.07;;;10.07;;
19664;SDS011;9980;51.020;7.772;2023-03-01T00:48:53;10.93;;;10.03;;
19664;SDS011;9980;51.020;7.772;2023-03-01T00:51:21;11.77;;;10.67;;
19664;SDS011;9980;51.020;7.772;2023-03-01T00:53:56;11.10;;;10.10;;
19664;SDS011;9980;51.020;7.772;2023-03-01T00:56:26;12.07;;;10.93;;
19664;SDS011;9980;51.020;7.772;2023-03-01T00:58:54;12.33;;;10.77;;
19664;SDS011;9980;51.020;7.772;2023-03-01T01:01:22;11.13;;;10.03;;
19664;SDS011;9980;51.020;7.772;2023-03-01T01:03:55;11.57;;;10.57;;
19664;SDS011;9980;51.020;7.772;2023-03-01T01:06:30;12.00;;;10.87;;
19664;SDS011;9980;51.020;7.772;2023-03-01T01:09:02;11.53;;;10.33;;
19664;SDS011;9980;51.020;7.772;2023-03-01T01:11:33;10.93;;;10.03;;
19664;SDS011;9980;51.020;7.772;2023-03-01T01:14:02;12.60;;;11.40;;
19664;SDS011;9980;51.020;7.772;2023-03-01T01:16:29;11.43;;;10.23;;
19664;SDS011;9980;51.020;7.772;2023-03-01T01:18:57;11.63;;;10.53;;
19664;SDS011;9980;51.020;7.772;2023-03-01T01:21:25;12.43;;;10.57;;
19664;SDS011;9980;51.020;7.772;2023-03-01T01:23:54;12.83;;;11.60;;
19664;SDS011;9980;51.020;7.772;2023-03-01T01:26:25;11.37;;;10.37;;
19664;SDS011;9980;51.020;7.772;2023-03-01T01:28:58;11.07;;;10.00;;
19664;SDS011;9980;51.020;7.772;2023-03-01T01:31:27;12.10;;;10.90;;
19664;SDS011;9980;51.020;7.772;2023-03-01T01:33:56;11.90;;;10.70;;
19664;SDS011;9980;51.020;7.772;2023-03-01T01:36:24;12.10;;;10.90;;
19664;SDS011;9980;51.020;7.772;2023-03-01T01:38:51;11.43;;;10.47;;
19664;SDS011;9980;51.020;7.772;2023-03-01T01:41:19;11.90;;;10.90;;
19664;SDS011;9980;51.020;7.772;2023-03-01T01:43:48;11.97;;;10.97;;
19664;SDS011;9980;51.020;7.772;2023-03-01T01:47:20;11.70;;;10.60;;
19664;SDS011;9980;51.020;7.772;2023-03-01T01:49:41;11.63;;;10.63;;
19664;SDS011;9980;51.020;7.772;2023-03-01T01:52:18;10.63;;;9.77;;
19664;SDS011;9980;51.020;7.772;2023-03-01T01:57:47;12.10;;;10.83;;
19664;SDS011;9980;51.020;7.772;2023-03-01T02:00:20;11.50;;;10.50;;
19664;SDS011;9980;51.020;7.772;2023-03-01T02:02:55;11.03;;;9.93;;
19664;SDS011;9980;51.020;7.772;2023-03-01T02:08:33;11.60;;;10.60;;
19664;SDS011;9980;51.020;7.772;2023-03-01T02:11:05;11.33;;;10.23;;
19664;SDS011;9980;51.020;7.772;2023-03-01T02:13:33;11.67;;;10.57;;
19664;SDS011;9980;51.020;7.772;2023-03-01T02:16:05;11.43;;;10.43;;
19664;SDS011;9980;51.020;7.772;2023-03-01T02:18:37;11.90;;;10.77;;
19664;SDS011;9980;51.020;7.772;2023-03-01T02:24:49;11.40;;;10.30;;
19664;SDS011;9980;51.020;7.772;2023-03-01T02:27:14;11.23;;;10.20;;
19664;SDS011;9980;51.020;7.772;2023-03-01T02:29:44;11.47;;;10.50;;
19664;SDS011;9980;51.020;7.772;2023-03-01T02:32:12;11.90;;;10.83;;
19664;SDS011;9980;51.020;7.772;2023-03-01T02:34:41;11.87;;;10.77;;
19664;SDS011;9980;51.020;7.772;2023-03-01T02:37:10;11.63;;;10.63;;
19664;SDS011;9980;51.020;7.772;2023-03-01T02:39:48;12.03;;;10.97;;
19664;SDS011;9980;51.020;7.772;2023-03-01T02:42:23;12.10;;;11.00;;
19664;SDS011;9980;51.020;7.772;2023-03-01T02:44:57;11.67;;;10.57;;
19664;SDS011;9980;51.020;7.772;2023-03-01T02:47:24;12.13;;;11.03;;
19664;SDS011;9980;51.020;7.772;2023-03-01T02:49:51;11.67;;;10.63;;
19664;SDS011;9980;51.020;7.772;2023-03-01T02:55:14;12.07;;;10.97;;
19664;SDS011;9980;51.020;7.772;2023-03-01T02:57:45;12.97;;;11.77;;
19664;SDS011;9980;51.020;7.772;2023-03-01T03:00:26;11.47;;;10.37;;
19664;SDS011;9980;51.020;7.772;2023-03-01T03:03:02;10.87;;;9.97;;
19664;SDS011;9980;51.020;7.772;2023-03-01T03:05:30;11.87;;;10.77;;
19664;SDS011;9980;51.020;7.772;2023-03-01T03:07:58;12.37;;;11.27;;
19664;SDS011;9980;51.020;7.772;2023-03-01T03:10:33;12.30;;;11.20;;
19664;SDS011;9980;51.020;7.772;2023-03-01T03:13:07;11.77;;;10.53;;
19664;SDS011;9980;51.020;7.772;2023-03-01T03:15:39;11.30;;;10.23;;
19664;SDS011;9980;51.020;7.772;2023-03-01T03:18:09;11.43;;;10.47;;
19664;SDS011;9980;51.020;7.772;2023-03-01T03:20:39;11.20;;;10.30;;
19664;SDS011;9980;51.020;7.772;2023-03-01T03:23:08;11.93;;;10.93;;
19664;SDS011;9980;51.020;7.772;2023-03-01T03:25:35;11.33;;;10.20;;
19664;SDS011;9980;51.020;7.772;2023-03-01T03:28:04;12.80;;;11.60;;
19664;SDS011;9980;51.020;7.772;2023-03-01T03:30:37;12.67;;;11.43;;
19664;SDS011;9980;51.020;7.772;2023-03-01T03:33:07;11.53;;;10.43;;
19664;SDS011;9980;51.020;7.772;2023-03-01T03:35:43;11.63;;;10.63;;
19664;SDS011;9980;51.020;7.772;2023-03-01T03:38:13;12.03;;;11.00;;
19664;SDS011;9980;51.020;7.772;2023-03-01T03:40:44;11.80;;;10.83;;
19664;SDS011;9980;51.020;7.772;2023-03-01T03:43:21;11.60;;;10.60;;
19664;SDS011;9980;51.020;7.772;2023-03-01T03:45:49;11.97;;;10.90;;
19664;SDS011;9980;51.020;7.772;2023-03-01T03:48:18;12.90;;;11.67;;
19664;SDS011;9980;51.020;7.772;2023-03-01T03:50:49;11.77;;;10.77;;
19664;SDS011;9980;51.020;7.772;2023-03-01T03:53:19;12.23;;;11.13;;
19664;SDS011;9980;51.020;7.772;2023-03-01T03:55:50;11.60;;;10.60;;
19664;SDS011;9980;51.020;7.772;2023-03-01T03:58:18;11.47;;;10.40;;
19664;SDS011;9980;51.020;7.772;2023-03-01T04:00:50;12.07;;;10.97;;
19664;SDS011;9980;51.020;7.772;2023-03-01T04:03:22;11.67;;;10.50;;
19664;SDS011;9980;51.020;7.772;2023-03-01T04:05:51;11.47;;;10.37;;
19664;SDS011;9980;51.020;7.772;2023-03-01T04:08:19;13.60;;;12.30;;
19664;SDS011;9980;51.020;7.772;2023-03-01T04:10:50;12.87;;;11.63;;
19664;SDS011;9980;51.020;7.772;2023-03-01T04:13:22;15.83;;;14.13;;
19664;SDS011;9980;51.020;7.772;2023-03-01T04:15:54;17.80;;;15.40;;
19664;SDS011;9980;51.020;7.772;2023-03-01T04:18:22;16.47;;;14.67;;
19664;SDS011;9980;51.020;7.772;2023-03-01T04:20:52;16.10;;;13.87;;
19664;SDS011;9980;51.020;7.772;2023-03-01T04:23:21;13.67;;;12.27;;
19664;SDS011;9980;51.020;7.772;2023-03-01T04:25:52;14.30;;;12.80;;
19664;SDS011;9980;51.020;7.772;2023-03-01T04:28:23;14.13;;;12.63;;
19664;SDS011;9980;51.020;7.772;2023-03-01T04:30:52;13.87;;;12.47;;
19664;SDS011;9980;51.020;7.772;2023-03-01T04:33:22;12.70;;;11.47;;
19664;SDS011;9980;51.020;7.772;2023-03-01T04:35:51;13.30;;;12.00;;
19664;SDS011;9980;51.020;7.772;2023-03-01T04:38:19;13.03;;;11.77;;
19664;SDS011;9980;51.020;7.772;2023-03-01T04:40:47;18.60;;;15.40;;
19664;SDS011;9980;51.020;7.772;2023-03-01T04:43:14;19.73;;;15.07;;
19664;SDS011;9980;51.020;7.772;2023-03-01T04:45:41;15.93;;;14.33;;
19664;SDS011;9980;51.020;7.772;2023-03-01T04:48:09;15.00;;;13.50;;
19664;SDS011;9980;51.020;7.772;2023-03-01T04:50:35;15.07;;;13.07;;
19664;SDS011;9980;51.020;7.772;2023-03-01T04:53:02;16.00;;;14.27;;
19664;SDS011;9980;51.020;7.772;2023-03-01T04:55:29;14.70;;;13.23;;
19664;SDS011;9980;51.020;7.772;2023-03-01T04:57:57;15.60;;;14.00;;
19664;SDS011;9980;51.020;7.772;2023-03-01T05:00:24;15.27;;;13.63;;
19664;SDS011;9980;51.020;7.772;2023-03-01T05:02:52;15.97;;;14.33;;
19664;SDS011;9980;51.020;7.772;2023-03-01T05:05:27;17.83;;;15.93;;
19664;SDS011;9980;51.020;7.772;2023-03-01T05:07:59;18.43;;;15.97;;
19664;SDS011;9980;51.020;7.772;2023-03-01T05:10:30;16.97;;;15.33;;
19664;SDS011;9980;51.020;7.772;2023-03-01T05:13:01;17.93;;;14.93;;
19664;SDS011;9980;51.020;7.772;2023-03-01T05:15:30;16.60;;;14.40;;
19664;SDS011;9980;51.020;7.772;2023-03-01T05:17:58;16.87;;;15.17;;
19664;SDS011;9980;51.020;7.772;2023-03-01T05:20:26;16.13;;;14.50;;
19664;SDS011;9980;51.020;7.772;2023-03-01T05:22:57;16.33;;;14.63;;
19664;SDS011;9980;51.020;7.772;2023-03-01T05:25:26;15.70;;;14.10;;
19664;SDS011;9980;51.020;7.772;2023-03-01T05:27:53;16.20;;;14.50;;
19664;SDS011;9980;51.020;7.772;2023-03-01T05:30:20;15.97;;;14.37;;
19664;SDS011;9980;51.020;7.772;2023-03-01T05:32:48;18.53;;;16.53;;
19664;SDS011;9980;51.020;7.772;2023-03-01T05:35:22;16.00;;;14.43;;
19664;SDS011;9980;51.020;7.772;2023-03-01T05:37:50;16.60;;;14.90;;
19664;SDS011;9980;51.020;7.772;2023-03-01T05:40:18;17.73;;;15.47;;
19664;SDS011;9980;51.020;7.772;2023-03-01T05:42:49;16.60;;;14.80;;
19664;SDS011;9980;51.020;7.772;2023-03-01T05:45:23;15.73;;;14.10;;
19664;SDS011;9980;51.020;7.772;2023-03-01T05:47:52;16.90;;;15.07;;
19664;SDS011;9980;51.020;7.772;2023-03-01T05:50:25;16.33;;;14.60;;
19664;SDS011;9980;51.020;7.772;2023-03-01T05:55:34;18.47;;;14.23;;
19664;SDS011;9980;51.020;7.772;2023-03-01T05:58:03;16.13;;;14.47;;
19664;SDS011;9980;51.020;7.772;2023-03-01T06:00:33;14.87;;;13.47;;
19664;SDS011;9980;51.020;7.772;2023-03-01T06:03:01;14.83;;;13.40;;
19664;SDS011;9980;51.020;7.772;2023-03-01T06:05:28;14.57;;;13.23;;
19664;SDS011;9980;51.020;7.772;2023-03-01T06:07:58;15.17;;;13.57;;
19664;SDS011;9980;51.020;7.772;2023-03-01T06:10:26;14.80;;;12.73;;
19664;SDS011;9980;51.020;7.772;2023-03-01T06:12:53;13.63;;;12.33;;
19664;SDS011;9980;51.020;7.772;2023-03-01T06:15:21;14.53;;;13.00;;
19664;SDS011;9980;51.020;7.772;2023-03-01T06:17:49;14.77;;;13.13;;
19664;SDS011;9980;51.020;7.772;2023-03-01T06:20:18;14.77;;;13.17;;
19664;SDS011;9980;51.020;7.772;2023-03-01T06:22:47;13.97;;;12.63;;
19664;SDS011;9980;51.020;7.772;2023-03-01T06:25:16;13.83;;;12.50;;
19664;SDS011;9980;51.020;7.772;2023-03-01T06:27:49;12.90;;;11.80;;
19664;SDS011;9980;51.020;7.772;2023-03-01T06:30:18;14.43;;;13.17;;
19664;SDS011;9980;51.020;7.772;2023-03-01T06:32:48;14.67;;;13.17;;
19664;SDS011;9980;51.020;7.772;2023-03-01T06:35:15;14.03;;;12.63;;
19664;SDS011;9980;51.020;7.772;2023-03-01T06:37:45;14.83;;;13.27;;
19664;SDS011;9980;51.020;7.772;2023-03-01T06:40:14;15.73;;;12.73;;
19664;SDS011;9980;51.020;7.772;2023-03-01T06:42:43;14.23;;;12.77;;
19664;SDS011;9980;51.020;7.772;2023-03-01T06:45:18;14.07;;;12.60;;
19664;SDS011;9980;51.020;7.772;2023-03-01T06:47:47;14.53;;;13.03;;
19664;SDS011;9980;51.020;7.772;2023-03-01T06:50:15;14.80;;;13.33;;
19664;SDS011;9980;51.020;7.772;2023-03-01T06:52:43;16.07;;;14.43;;
19664;SDS011;9980;51.020;7.772;2023-03-01T06:55:11;16.10;;;14.47;;
19664;SDS011;9980;51.020;7.772;2023-03-01T06:57:39;17.47;;;15.63;;
19664;SDS011;9980;51.020;7.772;2023-03-01T07:00:06;15.37;;;13.87;;
19664;SDS011;9980;51.020;7.772;2023-03-01T07:02:34;15.40;;;13.90;;
19664;SDS011;9980;51.020;7.772;2023-03-01T07:05:01;19.37;;;15.50;;
19664;SDS011;9980;51.020;7.772;2023-03-01T07:07:29;21.37;;;16.40;;
19664;SDS011;9980;51.020;7.772;2023-03-01T07:09:55;19.07;;;16.13;;
19664;SDS011;9980;51.020;7.772;2023-03-01T07:12:22;19.30;;;14.20;;
19664;SDS011;9980;51.020;7.772;2023-03-01T07:14:49;17.07;;;14.63;;
19664;SDS011;9980;51.020;7.772;2023-03-01T07:17:16;14.83;;;13.30;;
19664;SDS011;9980;51.020;7.772;2023-03-01T07:19:43;17.23;;;14.23;;
19664;SDS011;9980;51.020;7.772;2023-03-01T07:22:11;14.20;;;12.63;;
19664;SDS011;9980;51.020;7.772;2023-03-01T07:24:37;15.97;;;13.83;;
19664;SDS011;9980;51.020;7.772;2023-03-01T07:27:04;16.30;;;13.70;;
19664;SDS011;9980;51.020;7.772;2023-03-01T07:29:31;15.07;;;13.57;;
19664;SDS011;9980;51.020;7.772;2023-03-01T07:31:58;14.83;;;13.13;;
19664;SDS011;9980;51.020;7.772;2023-03-01T07:34:25;15.40;;;13.80;;
19664;SDS011;9980;51.020;7.772;2023-03-01T07:36:52;15.57;;;13.17;;
19664;SDS011;9980;51.020;7.772;2023-03-01T07:39:19;15.13;;;13.47;;
19664;SDS011;9980;51.020;7.772;2023-03-01T07:41:46;14.50;;;13.00;;
19664;SDS011;9980;51.020;7.772;2023-03-01T07:44:13;15.27;;;13.67;;
19664;SDS011;9980;51.020;7.772;2023-03-01T07:46:41;21.00;;;13.90;;
19664;SDS011;9980;51.020;7.772;2023-03-01T07:49:08;15.90;;;13.90;;
19664;SDS011;9980;51.020;7.772;2023-03-01T07:51:36;14.87;;;13.27;;
19664;SDS011;9980;51.020;7.772;2023-03-01T07:54:02;15.00;;;13.23;;
19664;SDS011;9980;51.020;7.772;2023-03-01T07:56:29;16.90;;;15.13;;
19664;SDS011;9980;51.020;7.772;2023-03-01T07:58:58;20.40;;;16.37;;
19664;SDS011;9980;51.020;7.772;2023-03-01T08:01:26;18.77;;;15.47;;
19664;SDS011;9980;51.020;7.772;2023-03-01T08:03:53;20.43;;;15.07;;
19664;SDS011;9980;51.020;7.772;2023-03-01T08:06:19;18.60;;;16.03;;
19664;SDS011;9980;51.020;7.772;2023-03-01T08:08:46;24.30;;;16.53;;
19664;SDS011;9980;51.020;7.772;2023-03-01T08:11:14;18.93;;;15.70;;
19664;SDS011;9980;51.020;7.772;2023-03-01T08:13:42;16.57;;;14.63;;
19664;SDS011;9980;51.020;7.772;2023-03-01T08:16:11;16.70;;;14.97;;
19664;SDS011;9980;51.020;7.772;2023-03-01T08:18:41;15.30;;;13.50;;
19664;SDS011;9980;51.020;7.772;2023-03-01T08:21:10;16.00;;;13.70;;
19664;SDS011;9980;51.020;7.772;2023-03-01T08:23:42;15.03;;;13.57;;
19664;SDS011;9980;51.020;7.772;2023-03-01T08:26:15;18.00;;;14.00;;
19664;SDS011;9980;51.020;7.772;2023-03-01T08:28:46;14.53;;;13.03;;
19664;SDS011;9980;51.020;7.772;2023-03-01T08:31:22;18.23;;;14.03;;
19664;SDS011;9980;51.020;7.772;2023-03-01T08:33:53;15.37;;;13.83;;
19664;SDS011;9980;51.020;7.772;2023-03-01T08:36:25;18.10;;;14.33;;
19664;SDS011;9980;51.020;7.772;2023-03-01T08:38:58;18.27;;;14.00;;
19664;SDS011;9980;51.020;7.772;2023-03-01T08:41:25;17.83;;;14.97;;
19664;SDS011;9980;51.020;7.772;2023-03-01T08:43:53;14.43;;;12.87;;
19664;SDS011;9980;51.020;7.772;2023-03-01T08:46:29;17.07;;;13.17;;
19664;SDS011;9980;51.020;7.772;2023-03-01T08:49:00;15.97;;;13.20;;
19664;SDS011;9980;51.020;7.772;2023-03-01T08:51:33;15.23;;;13.03;;
19664;SDS011;9980;51.020;7.772;2023-03-01T08:54:07;15.03;;;13.00;;
19664;SDS011;9980;51.020;7.772;2023-03-01T08:56:41;17.90;;;13.63;;
19664;SDS011;9980;51.020;7.772;2023-03-01T08:59:09;18.23;;;13.57;;
19664;SDS011;9980;51.020;7.772;2023-03-01T09:01:40;18.00;;;13.47;;
19664;SDS011;9980;51.020;7.772;2023-03-01T09:04:10;15.77;;;13.23;;
19664;SDS011;9980;51.020;7.772;2023-03-01T09:06:38;14.87;;;13.10;;
19664;SDS011;9980;51.020;7.772;2023-03-01T09:09:05;15.97;;;12.67;;
19664;SDS011;9980;51.020;7.772;2023-03-01T09:11:38;15.87;;;12.90;;
19664;SDS011;9980;51.020;7.772;2023-03-01T09:14:05;16.17;;;12.67;;
19664;SDS011;9980;51.020;7.772;2023-03-01T09:16:32;14.47;;;12.23;;
19664;SDS011;9980;51.020;7.772;2023-03-01T09:19:02;15.97;;;12.60;;
19664;SDS011;9980;51.020;7.772;2023-03-01T09:21:29;15.57;;;12.90;;
19664;SDS011;9980;51.020;7.772;2023-03-01T09:24:06;18.93;;;13.23;;
19664;SDS011;9980;51.020;7.772;2023-03-01T09:26:40;14.23;;;12.73;;
19664;SDS011;9980;51.020;7.772;2023-03-01T09:29:08;16.10;;;13.57;;
19664;SDS011;9980;51.020;7.772;2023-03-01T09:31:36;15.97;;;12.43;;
19664;SDS011;9980;51.020;7.772;2023-03-01T09:34:02;17.63;;;13.27;;
19664;SDS011;9980;51.020;7.772;2023-03-01T09:36:29;15.77;;;12.77;;
19664;SDS011;9980;51.020;7.772;2023-03-01T09:38:57;17.00;;;12.23;;
19664;SDS011;9980;51.020;7.772;2023-03-01T09:41:30;15.20;;;12.70;;
19664;SDS011;9980;51.020;7.772;2023-03-01T09:44:08;18.03;;;12.23;;
19664;SDS011;9980;51.020;7.772;2023-03-01T09:47:17;13.37;;;11.97;;
19664;SDS011;9980;51.020;7.772;2023-03-01T09:49:53;13.67;;;12.17;;
19664;SDS011;9980;51.020;7.772;2023-03-01T09:52:34;16.43;;;11.57;;
19664;SDS011;9980;51.020;7.772;2023-03-01T09:55:25;13.57;;;11.60;;
19664;SDS011;9980;51.020;7.772;2023-03-01T09:58:25;15.37;;;12.20;;
19664;SDS011;9980;51.020;7.772;2023-03-01T10:01:24;15.13;;;12.27;;
19664;SDS011;9980;51.020;7.772;2023-03-01T10:04:26;12.83;;;11.33;;
19664;SDS011;9980;51.020;7.772;2023-03-01T10:09:37;12.33;;;11.03;;
19664;SDS011;9980;51.020;7.772;2023-03-01T10:12:09;12.37;;;10.93;;
19664;SDS011;9980;51.020;7.772;2023-03-01T10:20:17;12.30;;;11.00;;
19664;SDS011;9980;51.020;7.772;2023-03-01T10:23:09;14.07;;;10.70;;
19664;SDS011;9980;51.020;7.772;2023-03-01T10:31:22;14.50;;;10.17;;
19664;SDS011;9980;51.020;7.772;2023-03-01T10:33:55;11.80;;;10.00;;
19664;SDS011;9980;51.020;7.772;2023-03-01T10:36:24;13.07;;;10.30;;
19664;SDS011;9980;51.020;7.772;2023-03-01T10:38:55;10.83;;;9.50;;
19664;SDS011;9980;51.020;7.772;2023-03-01T10:41:24;12.57;;;9.93;;
19664;SDS011;9980;51.020;7.772;2023-03-01T10:43:54;12.07;;;9.47;;
19664;SDS011;9980;51.020;7.772;2023-03-01T10:46:31;11.13;;;9.97;;
19664;SDS011;9980;51.020;7.772;2023-03-01T10:49:21;10.23;;;9.13;;
19664;SDS011;9980;51.020;7.772;2023-03-01T10:51:49;12.13;;;9.33;;
19664;SDS011;9980;51.020;7.772;2023-03-01T10:54:20;12.47;;;9.23;;
19664;SDS011;9980;51.020;7.772;2023-03-01T10:56:59;10.37;;;9.27;;
19664;SDS011;9980;51.020;7.772;2023-03-01T10:59:32;9.77;;;8.77;;
19664;SDS011;9980;51.020;7.772;2023-03-01T11:02:14;16.57;;;9.80;;
19664;SDS011;9980;51.020;7.772;2023-03-01T11:05:40;10.57;;;9.10;;
19664;SDS011;9980;51.020;7.772;2023-03-01T11:07:58;10.73;;;8.57;;
19664;SDS011;9980;51.020;7.772;2023-03-01T11:10:30;9.70;;;8.70;;
19664;SDS011;9980;51.020;7.772;2023-03-01T11:13:08;9.77;;;8.77;;
19664;SDS011;9980;51.020;7.772;2023-03-01T11:15:58;10.30;;;8.20;;
19664;SDS011;9980;51.020;7.772;2023-03-01T11:18:29;9.77;;;8.57;;
19664;SDS011;9980;51.020;7.772;2023-03-01T11:21:12;8.07;;;7.30;;
19664;SDS011;9980;51.020;7.772;2023-03-01T11:23:41;8.37;;;6.67;;
19664;SDS011;9980;51.020;7.772;2023-03-01T11:26:12;8.87;;;6.50;;
19664;SDS011;9980;51.020;7.772;2023-03-01T11:28:43;7.63;;;6.93;;
19664;SDS011;9980;51.020;7.772;2023-03-01T11:31:21;7.17;;;6.47;;
19664;SDS011;9980;51.020;7.772;2023-03-01T11:34:09;7.03;;;6.37;;
19664;SDS011;9980;51.020;7.772;2023-03-01T11:36:53;7.97;;;7.17;;
19664;SDS011;9980;51.020;7.772;2023-03-01T11:39:36;7.67;;;6.50;;
19664;SDS011;9980;51.020;7.772;2023-03-01T11:45:08;8.20;;;7.40;;
19664;SDS011;9980;51.020;7.772;2023-03-01T11:47:55;8.73;;;7.57;;
19664;SDS011;9980;51.020;7.772;2023-03-01T12:10:57;7.37;;;6.53;;
19664;SDS011;9980;51.020;7.772;2023-03-01T12:14:13;9.07;;;7.60;;
19664;SDS011;9980;51.020;7.772;2023-03-01T12:20:35;8.70;;;6.50;;
19664;SDS011;9980;51.020;7.772;2023-03-01T12:26:55;7.30;;;6.50;;
19664;SDS011;9980;51.020;7.772;2023-03-01T12:30:16;8.37;;;6.57;;
19664;SDS011;9980;51.020;7.772;2023-03-01T12:48:26;7.97;;;7.20;;
19664;SDS011;9980;51.020;7.772;2023-03-01T12:51:10;7.57;;;6.70;;
19664;SDS011;9980;51.020;7.772;2023-03-01T12:53:44;8.80;;;7.10;;
19664;SDS011;9980;51.020;7.772;2023-03-01T12:56:18;8.10;;;7.10;;
19664;SDS011;9980;51.020;7.772;2023-03-01T12:59:03;7.57;;;6.67;;
19664;SDS011;9980;51.020;7.772;2023-03-01T13:01:56;7.20;;;6.50;;
19664;SDS011;9980;51.020;7.772;2023-03-01T13:04:58;7.03;;;6.33;;
19664;SDS011;9980;51.020;7.772;2023-03-01T13:07:54;8.47;;;6.40;;
19664;SDS011;9980;51.020;7.772;2023-03-01T13:13:48;6.87;;;6.17;;
19664;SDS011;9980;51.020;7.772;2023-03-01T13:16:22;7.20;;;6.40;;
19664;SDS011;9980;51.020;7.772;2023-03-01T13:21:42;6.63;;;5.93;;
19664;SDS011;9980;51.020;7.772;2023-03-01T13:29:44;7.00;;;6.10;;
19664;SDS011;9980;51.020;7.772;2023-03-01T13:32:39;7.83;;;6.20;;
19664;SDS011;9980;51.020;7.772;2023-03-01T13:37:46;7.23;;;6.13;;
19664;SDS011;9980;51.020;7.772;2023-03-01T13:42:45;6.70;;;6.03;;
19664;SDS011;9980;51.020;7.772;2023-03-01T13:45:38;8.83;;;6.13;;
19664;SDS011;9980;51.020;7.772;2023-03-01T13:51:00;7.27;;;6.00;;
19664;SDS011;9980;51.020;7.772;2023-03-01T13:53:33;6.97;;;6.27;;
19664;SDS011;9980;51.020;7.772;2023-03-01T13:56:09;6.93;;;5.97;;
19664;SDS011;9980;51.020;7.772;2023-03-01T13:58:44;6.43;;;5.70;;
19664;SDS011;9980;51.020;7.772;2023-03-01T14:01:40;7.67;;;6.00;;
19664;SDS011;9980;51.020;7.772;2023-03-01T14:04:28;7.07;;;5.83;;
19664;SDS011;9980;51.020;7.772;2023-03-01T14:07:08;7.03;;;5.87;;
19664;SDS011;9980;51.020;7.772;2023-03-01T14:09:37;7.43;;;5.57;;
19664;SDS011;9980;51.020;7.772;2023-03-01T14:18:04;6.50;;;5.80;;
19664;SDS011;9980;51.020;7.772;2023-03-01T14:20:41;8.57;;;6.30;;
19664;SDS011;9980;51.020;7.772;2023-03-01T14:23:12;6.80;;;6.10;;
19664;SDS011;9980;51.020;7.772;2023-03-01T14:25:55;7.70;;;6.73;;
19664;SDS011;9980;51.020;7.772;2023-03-01T14:28:24;8.00;;;6.13;;
19664;SDS011;9980;51.020;7.772;2023-03-01T14:30:55;6.73;;;6.13;;
19664;SDS011;9980;51.020;7.772;2023-03-01T14:33:32;8.70;;;6.70;;
19664;SDS011;9980;51.020;7.772;2023-03-01T14:36:08;9.57;;;6.20;;
19664;SDS011;9980;51.020;7.772;2023-03-01T14:38:38;7.10;;;6.40;;
19664;SDS011;9980;51.020;7.772;2023-03-01T14:41:09;7.20;;;6.23;;
19664;SDS011;9980;51.020;7.772;2023-03-01T14:43:43;7.40;;;6.63;;
19664;SDS011;9980;51.020;7.772;2023-03-01T14:46:18;6.57;;;5.97;;
19664;SDS011;9980;51.020;7.772;2023-03-01T14:49:04;7.73;;;6.93;;
19664;SDS011;9980;51.020;7.772;2023-03-01T14:51:51;8.20;;;6.90;;
19664;SDS011;9980;51.020;7.772;2023-03-01T14:54:39;6.80;;;6.10;;
19664;SDS011;9980;51.020;7.772;2023-03-01T14:57:15;7.50;;;6.13;;
19664;SDS011;9980;51.020;7.772;2023-03-01T14:59:54;7.70;;;7.00;;
19664;SDS011;9980;51.020;7.772;2023-03-01T15:02:26;10.50;;;6.80;;
19664;SDS011;9980;51.020;7.772;2023-03-01T15:04:56;7.83;;;6.70;;
19664;SDS011;9980;51.020;7.772;2023-03-01T15:07:29;8.70;;;6.70;;
19664;SDS011;9980;51.020;7.772;2023-03-01T15:10:02;7.17;;;6.47;;
19664;SDS011;9980;51.020;7.772;2023-03-01T15:12:36;9.17;;;7.23;;
19664;SDS011;9980;51.020;7.772;2023-03-01T15:15:19;7.53;;;6.73;;
19664;SDS011;9980;51.020;7.772;2023-03-01T15:18:00;8.50;;;7.23;;
19664;SDS011;9980;51.020;7.772;2023-03-01T15:20:40;10.07;;;7.37;;
19664;SDS011;9980;51.020;7.772;2023-03-01T15:23:25;8.13;;;7.33;;
19664;SDS011;9980;51.020;7.772;2023-03-01T15:25:56;7.97;;;7.17;;
19664;SDS011;9980;51.020;7.772;2023-03-01T15:28:31;8.57;;;7.23;;
19664;SDS011;9980;51.020;7.772;2023-03-01T15:31:13;7.57;;;6.33;;
19664;SDS011;9980;51.020;7.772;2023-03-01T15:33:50;7.97;;;7.20;;
19664;SDS011;9980;51.020;7.772;2023-03-01T15:42:10;7.20;;;6.50;;
19664;SDS011;9980;51.020;7.772;2023-03-01T15:47:50;7.83;;;7.13;;
19664;SDS011;9980;51.020;7.772;2023-03-01T15:50:33;10.10;;;8.97;;
19664;SDS011;9980;51.020;7.772;2023-03-01T15:53:08;10.07;;;7.80;;
19664;SDS011;9980;51.020;7.772;2023-03-01T15:55:43;8.50;;;7.60;;
19664;SDS011;9980;51.020;7.772;2023-03-01T15:58:18;9.10;;;7.73;;
19664;SDS011;9980;51.020;7.772;2023-03-01T16:00:49;8.13;;;7.33;;
19664;SDS011;9980;51.020;7.772;2023-03-01T16:03:27;7.73;;;6.93;;
19664;SDS011;9980;51.020;7.772;2023-03-01T16:05:55;7.77;;;7.07;;
19664;SDS011;9980;51.020;7.772;2023-03-01T16:08:22;7.90;;;7.10;;
19664;SDS011;9980;51.020;7.772;2023-03-01T16:10:49;8.70;;;7.60;;
19664;SDS011;9980;51.020;7.772;2023-03-01T16:13:17;8.57;;;7.33;;
19664;SDS011;9980;51.020;7.772;2023-03-01T16:15:45;9.47;;;8.40;;
19664;SDS011;9980;51.020;7.772;2023-03-01T16:18:12;11.80;;;8.40;;
19664;SDS011;9980;51.020;7.772;2023-03-01T16:20:40;8.27;;;7.40;;
19664;SDS011;9980;51.020;7.772;2023-03-01T16:23:07;8.30;;;7.50;;
19664;SDS011;9980;51.020;7.772;2023-03-01T16:25:36;8.93;;;8.03;;
19664;SDS011;9980;51.020;7.772;2023-03-01T16:28:04;9.13;;;7.10;;
19664;SDS011;9980;51.020;7.772;2023-03-01T16:30:35;9.10;;;8.10;;
19664;SDS011;9980;51.020;7.772;2023-03-01T16:33:05;8.90;;;7.50;;
19664;SDS011;9980;51.020;7.772;2023-03-01T16:35:51;11.63;;;7.53;;
19664;SDS011;9980;51.020;7.772;2023-03-01T16:38:18;13.97;;;7.37;;
19664;SDS011;9980;51.020;7.772;2023-03-01T16:40:50;10.67;;;8.53;;
19664;SDS011;9980;51.020;7.772;2023-03-01T16:43:18;8.30;;;7.37;;
19664;SDS011;9980;51.020;7.772;2023-03-01T16:45:45;9.17;;;7.87;;
19664;SDS011;9980;51.020;7.772;2023-03-01T16:48:12;15.00;;;11.40;;
19664;SDS011;9980;51.020;7.772;2023-03-01T16:50:40;12.20;;;10.60;;
19664;SDS011;9980;51.020;7.772;2023-03-01T16:53:07;11.83;;;10.53;;
19664;SDS011;9980;51.020;7.772;2023-03-01T16:55:34;9.57;;;7.80;;
19664;SDS011;9980;51.020;7.772;2023-03-01T16:58:02;11.77;;;8.37;;
19664;SDS011;9980;51.020;7.772;2023-03-01T17:00:30;11.53;;;8.83;;
19664;SDS011;9980;51.020;7.772;2023-03-01T17:02:57;17.37;;;11.80;;
19664;SDS011;9980;51.020;7.772;2023-03-01T17:05:24;10.10;;;7.97;;